sensor_id;sensor_type;location;lat;lon;timestamp;pressure;altitude;pressure_sealevel;temperature;humidity
5755;BME280;2902;42.130;24.732;2023-01-25T00:01:59;100956.91;;;3.32;85.92
5755;BME280;2902;42.130;24.732;2023-01-25T00:04:26;100961.25;;;3.44;86.10
5755;BME280;2902;42.130;24.732;2023-01-25T00:06:53;100964.09;;;3.41;86.86
5755;BME280;2902;42.130;24.732;2023-01-25T00:09:20;100965.94;;;3.51;86.38
5755;BME280;2902;42.130;24.732;2023-01-25T00:11:48;100963.47;;;3.26;87.79
5755;BME280;2902;42.130;24.732;2023-01-25T00:14:15;100970.38;;;3.27;88.09
5755;BME280;2902;42.130;24.732;2023-01-25T00:16:42;100955.31;;;3.18;88.62
5755;BME280;2902;42.130;24.732;2023-01-25T00:19:10;100965.13;;;3.27;88.73
5755;BME280;2902;42.130;24.732;2023-01-25T00:21:37;100956.75;;;3.22;89.38
5755;BME280;2902;42.130;24.732;2023-01-25T00:24:04;100956.84;;;3.10;89.05
5755;BME280;2902;42.130;24.732;2023-01-25T00:26:32;100967.25;;;3.22;89.31
5755;BME280;2902;42.130;24.732;2023-01-25T00:29:01;100968.34;;;3.20;89.74
5755;BME280;2902;42.130;24.732;2023-01-25T00:31:36;100959.38;;;3.22;89.76
5755;BME280;2902;42.130;24.732;2023-01-25T00:34:32;100959.88;;;3.27;90.03
5755;BME280;2902;42.130;24.732;2023-01-25T00:37:12;100948.44;;;3.28;89.71
5755;BME280;2902;42.130;24.732;2023-01-25T00:39:39;100963.03;;;3.43;88.96
5755;BME280;2902;42.130;24.732;2023-01-25T00:42:07;100963.28;;;3.40;88.27
5755;BME280;2902;42.130;24.732;2023-01-25T00:44:37;100962.00;;;3.22;88.93
5755;BME280;2902;42.130;24.732;2023-01-25T00:47:03;100963.56;;;3.25;89.08
5755;BME280;2902;42.130;24.732;2023-01-25T00:49:30;100965.97;;;3.28;88.12
5755;BME280;2902;42.130;24.732;2023-01-25T00:51:58;100967.44;;;3.32;87.96
5755;BME280;2902;42.130;24.732;2023-01-25T00:54:25;100968.16;;;3.10;88.08
5755;BME280;2902;42.130;24.732;2023-01-25T00:56:52;100970.38;;;3.27;88.48
5755;BME280;2902;42.130;24.732;2023-01-25T00:59:21;100966.47;;;3.33;88.44
5755;BME280;2902;42.130;24.732;2023-01-25T01:01:50;100959.22;;;3.36;87.10
5755;BME280;2902;42.130;24.732;2023-01-25T01:04:17;100958.03;;;3.40;86.83
5755;BME280;2902;42.130;24.732;2023-01-25T01:06:44;100949.72;;;2.99;87.94
5755;BME280;2902;42.130;24.732;2023-01-25T01:09:12;100960.91;;;3.14;87.73
5755;BME280;2902;42.130;24.732;2023-01-25T01:11:40;100966.28;;;3.12;88.13
5755;BME280;2902;42.130;24.732;2023-01-25T01:14:06;100955.81;;;3.23;87.73
5755;BME280;2902;42.130;24.732;2023-01-25T01:16:33;100947.72;;;3.26;86.98
5755;BME280;2902;42.130;24.732;2023-01-25T01:19:02;100956.00;;;3.09;88.49
5755;BME280;2902;42.130;24.732;2023-01-25T01:21:29;100952.41;;;3.10;88.10
5755;BME280;2902;42.130;24.732;2023-01-25T01:23:55;100943.75;;;3.21;88.45
5755;BME280;2902;42.130;24.732;2023-01-25T01:26:23;100940.31;;;3.20;88.50
5755;BME280;2902;42.130;24.732;2023-01-25T01:28:50;100946.22;;;3.11;88.16
5755;BME280;2902;42.130;24.732;2023-01-25T01:31:18;100940.03;;;3.12;88.72
5755;BME280;2902;42.130;24.732;2023-01-25T01:33:47;100929.75;;;3.09;87.18
5755;BME280;2902;42.130;24.732;2023-01-25T01:36:16;100938.13;;;3.14;87.16
5755;BME280;2902;42.130;24.732;2023-01-25T01:38:43;100935.06;;;2.97;87.99
5755;BME280;2902;42.130;24.732;2023-01-25T01:41:11;100941.63;;;2.91;88.67
5755;BME280;2902;42.130;24.732;2023-01-25T01:43:38;100931.50;;;2.98;87.90
5755;BME280;2902;42.130;24.732;2023-01-25T01:46:09;100941.84;;;2.99;88.02
5755;BME280;2902;42.130;24.732;2023-01-25T01:48:41;100933.78;;;3.02;88.27
5755;BME280;2902;42.130;24.732;2023-01-25T01:51:16;100935.91;;;2.97;87.34
5755;BME280;2902;42.130;24.732;2023-01-25T01:53:46;100941.53;;;3.04;87.49
5755;BME280;2902;42.130;24.732;2023-01-25T01:56:19;100930.25;;;3.14;86.75
5755;BME280;2902;42.130;24.732;2023-01-25T01:58:48;100934.78;;;3.12;86.53
5755;BME280;2902;42.130;24.732;2023-01-25T02:01:16;100940.81;;;3.02;86.95
5755;BME280;2902;42.130;24.732;2023-01-25T02:03:44;100934.41;;;3.06;86.85
5755;BME280;2902;42.130;24.732;2023-01-25T02:06:13;100936.06;;;3.07;87.51
5755;BME280;2902;42.130;24.732;2023-01-25T02:08:42;100931.66;;;2.84;87.47
5755;BME280;2902;42.130;24.732;2023-01-25T02:11:11;100933.31;;;2.85;87.28
5755;BME280;2902;42.130;24.732;2023-01-25T02:13:38;100919.94;;;3.00;87.89
5755;BME280;2902;42.130;24.732;2023-01-25T02:16:09;100930.94;;;2.82;87.16
5755;BME280;2902;42.130;24.732;2023-01-25T02:18:39;100922.03;;;2.61;88.38
5755;BME280;2902;42.130;24.732;2023-01-25T02:21:06;100917.38;;;2.64;88.36
5755;BME280;2902;42.130;24.732;2023-01-25T02:23:37;100920.59;;;2.68;88.53
5755;BME280;2902;42.130;24.732;2023-01-25T02:26:09;100921.63;;;2.78;88.38
5755;BME280;2902;42.130;24.732;2023-01-25T02:28:39;100916.28;;;2.79;87.90
5755;BME280;2902;42.130;24.732;2023-01-25T02:31:08;100926.19;;;2.87;88.06
5755;BME280;2902;42.130;24.732;2023-01-25T02:33:35;100930.47;;;2.88;87.74
5755;BME280;2902;42.130;24.732;2023-01-25T02:36:16;100929.53;;;2.89;87.43
5755;BME280;2902;42.130;24.732;2023-01-25T02:38:49;100930.19;;;3.03;87.63
5755;BME280;2902;42.130;24.732;2023-01-25T02:41:23;100936.41;;;3.02;87.58
5755;BME280;2902;42.130;24.732;2023-01-25T02:43:50;100926.63;;;3.04;86.72
5755;BME280;2902;42.130;24.732;2023-01-25T02:46:20;100922.38;;;3.14;86.95
5755;BME280;2902;42.130;24.732;2023-01-25T02:48:50;100928.38;;;3.27;86.09
5755;BME280;2902;42.130;24.732;2023-01-25T02:51:17;100926.97;;;3.34;85.75
5755;BME280;2902;42.130;24.732;2023-01-25T02:53:44;100924.13;;;3.37;85.14
5755;BME280;2902;42.130;24.732;2023-01-25T02:56:11;100909.88;;;3.18;84.54
5755;BME280;2902;42.130;24.732;2023-01-25T02:58:39;100926.47;;;3.29;85.28
5755;BME280;2902;42.130;24.732;2023-01-25T03:01:05;100932.22;;;3.34;84.84
5755;BME280;2902;42.130;24.732;2023-01-25T03:03:32;100936.50;;;3.35;84.32
5755;BME280;2902;42.130;24.732;2023-01-25T03:05:59;100923.16;;;3.38;83.55
5755;BME280;2902;42.130;24.732;2023-01-25T03:08:25;100936.50;;;3.35;83.86
5755;BME280;2902;42.130;24.732;2023-01-25T03:10:55;100940.84;;;3.47;83.69
5755;BME280;2902;42.130;24.732;2023-01-25T03:13:22;100938.47;;;3.55;83.31
5755;BME280;2902;42.130;24.732;2023-01-25T03:15:51;100933.91;;;3.46;82.41
5755;BME280;2902;42.130;24.732;2023-01-25T03:18:17;100935.59;;;3.47;82.18
5755;BME280;2902;42.130;24.732;2023-01-25T03:20:44;100933.19;;;3.33;82.41
5755;BME280;2902;42.130;24.732;2023-01-25T03:23:11;100933.25;;;3.21;83.06
5755;BME280;2902;42.130;24.732;2023-01-25T03:25:38;100931.72;;;3.29;83.18
5755;BME280;2902;42.130;24.732;2023-01-25T03:28:04;100926.53;;;3.17;82.90
5755;BME280;2902;42.130;24.732;2023-01-25T03:30:31;100923.81;;;3.18;83.28
5755;BME280;2902;42.130;24.732;2023-01-25T03:32:59;100921.59;;;3.01;82.48
5755;BME280;2902;42.130;24.732;2023-01-25T03:35:26;100932.56;;;2.95;82.70
5755;BME280;2902;42.130;24.732;2023-01-25T03:37:53;100913.47;;;2.93;83.70
5755;BME280;2902;42.130;24.732;2023-01-25T03:40:19;100925.19;;;3.00;83.08
5755;BME280;2902;42.130;24.732;2023-01-25T03:42:46;100925.91;;;3.02;83.21
5755;BME280;2902;42.130;24.732;2023-01-25T03:45:13;100929.31;;;2.92;83.38
5755;BME280;2902;42.130;24.732;2023-01-25T03:47:40;100930.88;;;2.94;83.08
5755;BME280;2902;42.130;24.732;2023-01-25T03:50:09;100926.25;;;2.98;82.46
5755;BME280;2902;42.130;24.732;2023-01-25T03:52:37;100937.13;;;3.04;82.90
5755;BME280;2902;42.130;24.732;2023-01-25T03:55:15;100944.09;;;2.93;82.79
5755;BME280;2902;42.130;24.732;2023-01-25T03:57:41;100924.63;;;2.84;82.58
5755;BME280;2902;42.130;24.732;2023-01-25T04:00:10;100933.56;;;3.05;81.97
5755;BME280;2902;42.130;24.732;2023-01-25T04:02:37;100938.59;;;3.08;81.82
5755;BME280;2902;42.130;24.732;2023-01-25T04:05:04;100938.22;;;3.13;80.98
5755;BME280;2902;42.130;24.732;2023-01-25T04:07:32;100947.63;;;3.04;81.69
5755;BME280;2902;42.130;24.732;2023-01-25T04:09:59;100936.66;;;3.10;81.11
5755;BME280;2902;42.130;24.732;2023-01-25T04:12:26;100942.53;;;3.14;81.35
5755;BME280;2902;42.130;24.732;2023-01-25T04:14:52;100947.66;;;3.15;80.77
5755;BME280;2902;42.130;24.732;2023-01-25T04:17:19;100944.38;;;3.01;81.46
5755;BME280;2902;42.130;24.732;2023-01-25T04:19:46;100940.13;;;3.11;81.01
5755;BME280;2902;42.130;24.732;2023-01-25T04:22:13;100942.06;;;3.20;80.77
5755;BME280;2902;42.130;24.732;2023-01-25T04:24:41;100945.81;;;3.28;81.18
5755;BME280;2902;42.130;24.732;2023-01-25T04:27:07;100940.56;;;3.28;80.67
5755;BME280;2902;42.130;24.732;2023-01-25T04:29:34;100943.16;;;3.17;81.21
5755;BME280;2902;42.130;24.732;2023-01-25T04:32:01;100943.53;;;3.24;80.98
5755;BME280;2902;42.130;24.732;2023-01-25T04:34:28;100942.06;;;3.20;80.80
5755;BME280;2902;42.130;24.732;2023-01-25T04:36:54;100950.66;;;3.22;81.34
5755;BME280;2902;42.130;24.732;2023-01-25T04:39:21;100949.38;;;3.27;81.26
5755;BME280;2902;42.130;24.732;2023-01-25T04:41:49;100956.44;;;3.38;81.90
5755;BME280;2902;42.130;24.732;2023-01-25T04:44:16;100950.53;;;3.47;80.80
5755;BME280;2902;42.130;24.732;2023-01-25T04:46:42;100958.75;;;3.42;81.07
5755;BME280;2902;42.130;24.732;2023-01-25T04:49:09;100950.38;;;3.37;81.54
5755;BME280;2902;42.130;24.732;2023-01-25T04:51:36;100951.44;;;3.35;82.29
5755;BME280;2902;42.130;24.732;2023-01-25T04:54:03;100945.50;;;3.09;82.86
5755;BME280;2902;42.130;24.732;2023-01-25T04:56:29;100949.97;;;2.96;83.80
5755;BME280;2902;42.130;24.732;2023-01-25T04:58:57;100942.88;;;3.09;83.55
5755;BME280;2902;42.130;24.732;2023-01-25T05:01:24;100940.75;;;3.14;83.54
5755;BME280;2902;42.130;24.732;2023-01-25T05:03:51;100945.03;;;3.15;83.48
5755;BME280;2902;42.130;24.732;2023-01-25T05:06:17;100945.94;;;3.03;82.18
5755;BME280;2902;42.130;24.732;2023-01-25T05:08:44;100943.22;;;2.81;83.38
5755;BME280;2902;42.130;24.732;2023-01-25T05:11:11;100946.88;;;2.91;83.77
5755;BME280;2902;42.130;24.732;2023-01-25T05:13:37;100949.97;;;2.96;83.70
5755;BME280;2902;42.130;24.732;2023-01-25T05:16:06;100960.88;;;3.03;83.60
5755;BME280;2902;42.130;24.732;2023-01-25T05:18:33;100965.56;;;2.87;83.34
5755;BME280;2902;42.130;24.732;2023-01-25T05:20:59;100961.44;;;2.95;83.27
5755;BME280;2902;42.130;24.732;2023-01-25T05:23:26;100967.59;;;2.94;82.79
5755;BME280;2902;42.130;24.732;2023-01-25T05:25:53;100962.22;;;3.08;82.44
5755;BME280;2902;42.130;24.732;2023-01-25T05:28:37;100966.50;;;3.09;82.78
5755;BME280;2902;42.130;24.732;2023-01-25T05:31:05;100964.94;;;3.07;82.32
5755;BME280;2902;42.130;24.732;2023-01-25T05:33:32;100969.56;;;3.03;82.37
5755;BME280;2902;42.130;24.732;2023-01-25T05:35:59;100964.84;;;3.08;81.86
5755;BME280;2902;42.130;24.732;2023-01-25T05:38:26;100977.06;;;3.20;81.94
5755;BME280;2902;42.130;24.732;2023-01-25T05:40:57;100973.47;;;3.21;81.11
5755;BME280;2902;42.130;24.732;2023-01-25T05:43:23;100974.66;;;3.17;80.71
5755;BME280;2902;42.130;24.732;2023-01-25T05:45:51;100975.81;;;3.13;80.17
5755;BME280;2902;42.130;24.732;2023-01-25T05:48:20;100978.28;;;3.04;80.48
5755;BME280;2902;42.130;24.732;2023-01-25T05:50:46;100978.28;;;3.04;79.87
5755;BME280;2902;42.130;24.732;2023-01-25T05:53:13;100976.25;;;3.07;79.91
5755;BME280;2902;42.130;24.732;2023-01-25T05:55:40;100981.28;;;3.10;79.17
5755;BME280;2902;42.130;24.732;2023-01-25T05:58:06;100987.41;;;3.22;79.88
5755;BME280;2902;42.130;24.732;2023-01-25T06:00:33;100989.81;;;3.25;79.01
5755;BME280;2902;42.130;24.732;2023-01-25T06:03:00;100990.22;;;3.31;78.45
5755;BME280;2902;42.130;24.732;2023-01-25T06:05:28;100985.22;;;3.28;78.72
5755;BME280;2902;42.130;24.732;2023-01-25T06:07:57;100983.22;;;3.19;78.87
5755;BME280;2902;42.130;24.732;2023-01-25T06:10:24;100980.88;;;3.27;79.09
5755;BME280;2902;42.130;24.732;2023-01-25T06:12:56;100984.25;;;3.29;78.44
5755;BME280;2902;42.130;24.732;2023-01-25T06:15:23;100984.72;;;3.34;77.73
5755;BME280;2902;42.130;24.732;2023-01-25T06:17:53;100982.75;;;3.14;78.40
5755;BME280;2902;42.130;24.732;2023-01-25T06:20:20;100975.75;;;3.02;78.71
5755;BME280;2902;42.130;24.732;2023-01-25T06:22:49;100979.13;;;3.04;78.48
5755;BME280;2902;42.130;24.732;2023-01-25T06:25:16;100979.66;;;2.97;79.22
5755;BME280;2902;42.130;24.732;2023-01-25T06:27:43;100976.94;;;2.98;78.93
5755;BME280;2902;42.130;24.732;2023-01-25T06:30:10;100974.88;;;3.14;78.28
5755;BME280;2902;42.130;24.732;2023-01-25T06:32:37;100981.56;;;3.18;78.23
5755;BME280;2902;42.130;24.732;2023-01-25T06:35:05;100990.41;;;3.17;78.17
5755;BME280;2902;42.130;24.732;2023-01-25T06:37:31;100992.81;;;3.20;78.46
5755;BME280;2902;42.130;24.732;2023-01-25T06:39:59;100993.78;;;3.30;78.12
5755;BME280;2902;42.130;24.732;2023-01-25T06:42:26;100991.75;;;3.23;77.35
5755;BME280;2902;42.130;24.732;2023-01-25T06:44:53;100985.59;;;3.11;77.07
5755;BME280;2902;42.130;24.732;2023-01-25T06:47:19;100982.06;;;3.00;78.24
5755;BME280;2902;42.130;24.732;2023-01-25T06:49:46;100980.34;;;3.11;77.88
5755;BME280;2902;42.130;24.732;2023-01-25T06:52:13;100984.69;;;3.23;77.58
5755;BME280;2902;42.130;24.732;2023-01-25T06:54:40;100985.31;;;3.27;77.00
5755;BME280;2902;42.130;24.732;2023-01-25T06:57:08;100980.22;;;3.36;77.25
5755;BME280;2902;42.130;24.732;2023-01-25T06:59:36;100994.81;;;3.40;75.92
5755;BME280;2902;42.130;24.732;2023-01-25T07:02:03;100991.22;;;3.41;76.71
5755;BME280;2902;42.130;24.732;2023-01-25T07:04:30;100990.31;;;3.30;76.77
5755;BME280;2902;42.130;24.732;2023-01-25T07:06:57;100980.88;;;3.27;77.16
5755;BME280;2902;42.130;24.732;2023-01-25T07:09:24;100988.75;;;3.27;77.05
5755;BME280;2902;42.130;24.732;2023-01-25T07:11:50;100985.22;;;3.39;76.96
5755;BME280;2902;42.130;24.732;2023-01-25T07:14:19;101002.44;;;3.43;77.24
5755;BME280;2902;42.130;24.732;2023-01-25T07:16:45;100981.88;;;3.37;76.40
5755;BME280;2902;42.130;24.732;2023-01-25T07:19:12;100996.47;;;3.41;77.51
5755;BME280;2902;42.130;24.732;2023-01-25T07:21:39;100995.13;;;3.36;77.51
5755;BME280;2902;42.130;24.732;2023-01-25T07:24:06;100993.09;;;3.39;77.38
5755;BME280;2902;42.130;24.732;2023-01-25T07:26:33;100988.13;;;3.47;77.29
5755;BME280;2902;42.130;24.732;2023-01-25T07:28:59;100999.16;;;3.63;77.08
5755;BME280;2902;42.130;24.732;2023-01-25T07:31:27;100999.16;;;3.63;75.76
5755;BME280;2902;42.130;24.732;2023-01-25T07:33:55;101007.78;;;3.65;77.01
5755;BME280;2902;42.130;24.732;2023-01-25T07:36:22;101000.13;;;3.62;76.14
5755;BME280;2902;42.130;24.732;2023-01-25T07:38:52;101007.00;;;3.52;75.37
5755;BME280;2902;42.130;24.732;2023-01-25T07:41:19;101012.56;;;3.37;75.54
5755;BME280;2902;42.130;24.732;2023-01-25T07:43:45;101014.22;;;3.38;75.67
5755;BME280;2902;42.130;24.732;2023-01-25T07:46:13;101008.84;;;3.28;75.91
5755;BME280;2902;42.130;24.732;2023-01-25T07:48:45;101005.03;;;3.32;75.71
5755;BME280;2902;42.130;24.732;2023-01-25T07:51:12;101008.38;;;3.34;76.10
5755;BME280;2902;42.130;24.732;2023-01-25T07:53:48;101015.06;;;3.38;75.78
5755;BME280;2902;42.130;24.732;2023-01-25T07:56:15;101015.06;;;3.38;75.59
5755;BME280;2902;42.130;24.732;2023-01-25T07:58:43;101010.81;;;3.48;76.27
5755;BME280;2902;42.130;24.732;2023-01-25T08:01:11;101013.47;;;3.59;75.49
5755;BME280;2902;42.130;24.732;2023-01-25T08:03:38;100994.66;;;3.42;74.66
5755;BME280;2902;42.130;24.732;2023-01-25T08:06:07;101022.03;;;3.50;73.85
5755;BME280;2902;42.130;24.732;2023-01-25T08:08:37;101008.59;;;3.31;74.56
5755;BME280;2902;42.130;24.732;2023-01-25T08:11:07;101017.97;;;3.46;74.68
5755;BME280;2902;42.130;24.732;2023-01-25T08:13:35;101021.78;;;3.42;74.55
5755;BME280;2902;42.130;24.732;2023-01-25T08:16:01;101019.69;;;3.58;74.78
5755;BME280;2902;42.130;24.732;2023-01-25T08:18:28;101016.25;;;3.69;73.49
5755;BME280;2902;42.130;24.732;2023-01-25T08:20:56;101015.56;;;3.78;73.45
5755;BME280;2902;42.130;24.732;2023-01-25T08:23:25;101020.28;;;3.62;73.28
5755;BME280;2902;42.130;24.732;2023-01-25T08:25:52;101037.22;;;3.58;73.23
5755;BME280;2902;42.130;24.732;2023-01-25T08:28:18;101032.09;;;3.56;74.42
5755;BME280;2902;42.130;24.732;2023-01-25T08:30:45;101011.84;;;3.69;77.15
5755;BME280;2902;42.130;24.732;2023-01-25T08:33:12;101033.56;;;3.71;74.53
5755;BME280;2902;42.130;24.732;2023-01-25T08:35:39;101017.09;;;3.80;74.30
5755;BME280;2902;42.130;24.732;2023-01-25T08:38:05;101026.00;;;3.90;73.01
5755;BME280;2902;42.130;24.732;2023-01-25T08:40:33;101036.00;;;3.85;72.80
5755;BME280;2902;42.130;24.732;2023-01-25T08:43:00;101031.44;;;3.76;72.20
5755;BME280;2902;42.130;24.732;2023-01-25T08:45:27;101027.78;;;3.55;73.17
5755;BME280;2902;42.130;24.732;2023-01-25T08:47:58;101029.72;;;3.64;73.96
5755;BME280;2902;42.130;24.732;2023-01-25T08:50:25;101023.66;;;3.64;73.77
5755;BME280;2902;42.130;24.732;2023-01-25T08:52:52;101019.69;;;3.58;73.18
5755;BME280;2902;42.130;24.732;2023-01-25T08:55:18;101020.16;;;3.63;73.83
5755;BME280;2902;42.130;24.732;2023-01-25T08:57:46;101017.31;;;3.66;73.09
5755;BME280;2902;42.130;24.732;2023-01-25T09:00:14;101026.88;;;3.67;73.15
5755;BME280;2902;42.130;24.732;2023-01-25T09:02:41;101016.03;;;3.83;73.63
5755;BME280;2902;42.130;24.732;2023-01-25T09:05:08;101018.81;;;3.81;73.51
5755;BME280;2902;42.130;24.732;2023-01-25T09:07:35;101008.41;;;3.91;73.96
5755;BME280;2902;42.130;24.732;2023-01-25T09:10:03;101010.72;;;4.06;72.98
5755;BME280;2902;42.130;24.732;2023-01-25T09:12:33;101004.25;;;3.99;72.65
5755;BME280;2902;42.130;24.732;2023-01-25T09:15:01;100996.38;;;4.10;73.44
5755;BME280;2902;42.130;24.732;2023-01-25T09:17:29;101013.13;;;4.20;72.26
5755;BME280;2902;42.130;24.732;2023-01-25T09:19:57;100986.47;;;4.14;72.23
5755;BME280;2902;42.130;24.732;2023-01-25T09:22:23;100993.41;;;4.04;73.43
5755;BME280;2902;42.130;24.732;2023-01-25T09:24:50;100996.63;;;4.18;73.02
5755;BME280;2902;42.130;24.732;2023-01-25T09:27:18;100995.56;;;4.21;73.11
5755;BME280;2902;42.130;24.732;2023-01-25T09:29:45;100997.09;;;4.12;72.95
5755;BME280;2902;42.130;24.732;2023-01-25T09:32:13;100991.13;;;4.10;73.43
5755;BME280;2902;42.130;24.732;2023-01-25T09:34:39;100982.41;;;4.10;73.93
5755;BME280;2902;42.130;24.732;2023-01-25T09:37:06;100974.13;;;4.25;73.11
5755;BME280;2902;42.130;24.732;2023-01-25T09:39:33;100967.69;;;4.29;72.51
5755;BME280;2902;42.130;24.732;2023-01-25T09:42:14;100965.53;;;4.34;72.85
5755;BME280;2902;42.130;24.732;2023-01-25T09:45:07;100950.59;;;4.46;72.69
5755;BME280;2902;42.130;24.732;2023-01-25T09:47:43;100959.06;;;4.49;72.16
5755;BME280;2902;42.130;24.732;2023-01-25T09:50:24;100956.44;;;4.38;72.47
5755;BME280;2902;42.130;24.732;2023-01-25T09:53:18;100952.38;;;4.45;72.59
5755;BME280;2902;42.130;24.732;2023-01-25T09:55:50;100953.69;;;4.40;72.56
5755;BME280;2902;42.130;24.732;2023-01-25T09:58:19;100954.66;;;4.50;72.80
5755;BME280;2902;42.130;24.732;2023-01-25T10:00:50;100948.31;;;4.52;72.35
5755;BME280;2902;42.130;24.732;2023-01-25T10:03:24;100949.22;;;4.62;72.37
5755;BME280;2902;42.130;24.732;2023-01-25T10:05:56;100938.34;;;4.67;72.21
5755;BME280;2902;42.130;24.732;2023-01-25T10:08:27;100938.31;;;4.78;71.98
5755;BME280;2902;42.130;24.732;2023-01-25T10:10:59;100935.81;;;4.76;71.63
5755;BME280;2902;42.130;24.732;2023-01-25T10:13:27;100929.22;;;4.82;71.96
5755;BME280;2902;42.130;24.732;2023-01-25T10:16:00;100918.84;;;4.58;71.92
5755;BME280;2902;42.130;24.732;2023-01-25T10:18:32;100929.03;;;4.63;71.12
5755;BME280;2902;42.130;24.732;2023-01-25T10:21:02;100921.00;;;4.64;71.61
5755;BME280;2902;42.130;24.732;2023-01-25T10:23:59;100904.97;;;4.67;71.46
5755;BME280;2902;42.130;24.732;2023-01-25T10:26:35;100909.75;;;4.62;71.75
5755;BME280;2902;42.130;24.732;2023-01-25T10:29:08;100905.97;;;4.55;71.26
5755;BME280;2902;42.130;24.732;2023-01-25T10:31:40;100897.09;;;4.56;71.67
5755;BME280;2902;42.130;24.732;2023-01-25T10:34:17;100895.59;;;4.74;72.02
5755;BME280;2902;42.130;24.732;2023-01-25T10:36:46;100890.88;;;4.57;72.15
5755;BME280;2902;42.130;24.732;2023-01-25T10:39:14;100886.69;;;4.66;71.73
5755;BME280;2902;42.130;24.732;2023-01-25T10:41:43;100887.34;;;4.47;71.83
5755;BME280;2902;42.130;24.732;2023-01-25T10:44:11;100875.38;;;4.43;72.48
5755;BME280;2902;42.130;24.732;2023-01-25T10:46:52;100880.13;;;4.49;71.87
5755;BME280;2902;42.130;24.732;2023-01-25T10:49:24;100878.19;;;4.62;71.60
5755;BME280;2902;42.130;24.732;2023-01-25T10:51:53;100873.97;;;4.71;71.63
5755;BME280;2902;42.130;24.732;2023-01-25T10:54:21;100864.00;;;4.85;71.33
5755;BME280;2902;42.130;24.732;2023-01-25T10:56:49;100871.16;;;4.83;71.80
5755;BME280;2902;42.130;24.732;2023-01-25T10:59:22;100873.47;;;4.77;71.23
5755;BME280;2902;42.130;24.732;2023-01-25T11:01:50;100870.72;;;4.78;71.04
5755;BME280;2902;42.130;24.732;2023-01-25T11:04:29;100863.63;;;4.90;70.72
5755;BME280;2902;42.130;24.732;2023-01-25T11:06:57;100862.00;;;4.98;70.43
5755;BME280;2902;42.130;24.732;2023-01-25T11:09:33;100854.84;;;5.00;70.54
5755;BME280;2902;42.130;24.732;2023-01-25T11:12:01;100850.72;;;4.55;71.66
5755;BME280;2902;42.130;24.732;2023-01-25T11:14:30;100845.38;;;4.66;71.05
5755;BME280;2902;42.130;24.732;2023-01-25T11:16:58;100844.50;;;4.77;71.56
5755;BME280;2902;42.130;24.732;2023-01-25T11:19:31;100827.66;;;5.00;75.20
5755;BME280;2902;42.130;24.732;2023-01-25T11:22:01;100833.56;;;5.33;72.92
5755;BME280;2902;42.130;24.732;2023-01-25T11:24:29;100842.88;;;5.37;70.39
5755;BME280;2902;42.130;24.732;2023-01-25T11:27:19;100837.31;;;5.40;69.83
5755;BME280;2902;42.130;24.732;2023-01-25T11:30:06;100826.09;;;5.38;69.35
5755;BME280;2902;42.130;24.732;2023-01-25T11:32:33;100825.59;;;5.24;69.32
5755;BME280;2902;42.130;24.732;2023-01-25T11:35:01;100819.44;;;4.93;70.87
5755;BME280;2902;42.130;24.732;2023-01-25T11:37:37;100818.22;;;4.97;70.01
5755;BME280;2902;42.130;24.732;2023-01-25T11:40:14;100815.59;;;4.97;70.65
5755;BME280;2902;42.130;24.732;2023-01-25T11:42:51;100821.63;;;4.88;70.75
5755;BME280;2902;42.130;24.732;2023-01-25T11:45:39;100812.69;;;5.00;70.28
5755;BME280;2902;42.130;24.732;2023-01-25T11:48:25;100813.19;;;4.94;69.12
5755;BME280;2902;42.130;24.732;2023-01-25T11:51:01;100805.16;;;4.75;70.50
5755;BME280;2902;42.130;24.732;2023-01-25T11:56:34;100790.22;;;4.96;69.81
5755;BME280;2902;42.130;24.732;2023-01-25T11:59:20;100794.56;;;4.86;69.83
5755;BME280;2902;42.130;24.732;2023-01-25T12:02:14;100792.69;;;4.98;69.03
5755;BME280;2902;42.130;24.732;2023-01-25T12:04:56;100787.19;;;5.01;69.52
5755;BME280;2902;42.130;24.732;2023-01-25T12:07:35;100789.00;;;5.00;69.41
5755;BME280;2902;42.130;24.732;2023-01-25T12:10:19;100770.94;;;4.75;70.22
5755;BME280;2902;42.130;24.732;2023-01-25T12:12:54;100762.22;;;4.95;70.80
5755;BME280;2902;42.130;24.732;2023-01-25T12:15:40;100773.66;;;5.05;69.92
5755;BME280;2902;42.130;24.732;2023-01-25T12:18:23;100765.66;;;5.16;70.15
5755;BME280;2902;42.130;24.732;2023-01-25T12:21:04;100769.25;;;5.15;69.91
5755;BME280;2902;42.130;24.732;2023-01-25T12:23:45;100767.66;;;5.24;69.51
5755;BME280;2902;42.130;24.732;2023-01-25T12:26:21;100762.28;;;5.35;69.16
5755;BME280;2902;42.130;24.732;2023-01-25T12:28:58;100755.75;;;5.29;68.98
5755;BME280;2902;42.130;24.732;2023-01-25T12:31:33;100754.31;;;5.16;69.68
5755;BME280;2902;42.130;24.732;2023-01-25T12:34:02;100762.00;;;4.87;69.97
5755;BME280;2902;42.130;24.732;2023-01-25T12:36:36;100752.59;;;5.05;69.65
5755;BME280;2902;42.130;24.732;2023-01-25T12:39:11;100753.19;;;5.18;69.04
5755;BME280;2902;42.130;24.732;2023-01-25T12:41:42;100760.13;;;5.19;68.85
5755;BME280;2902;42.130;24.732;2023-01-25T12:44:15;100757.78;;;4.96;68.91
5755;BME280;2902;42.130;24.732;2023-01-25T12:46:49;100760.72;;;5.02;68.96
5755;BME280;2902;42.130;24.732;2023-01-25T12:49:24;100759.00;;;4.92;68.25
5755;BME280;2902;42.130;24.732;2023-01-25T12:51:55;100743.94;;;4.73;69.19
5755;BME280;2902;42.130;24.732;2023-01-25T12:54:28;100745.78;;;4.82;70.10
5755;BME280;2902;42.130;24.732;2023-01-25T12:57:07;100748.09;;;4.96;70.16
5755;BME280;2902;42.130;24.732;2023-01-25T12:59:41;100746.34;;;5.06;69.46
5755;BME280;2902;42.130;24.732;2023-01-25T13:02:41;100744.28;;;5.10;69.64
5755;BME280;2902;42.130;24.732;2023-01-25T13:05:21;100734.38;;;4.72;70.74
5755;BME280;2902;42.130;24.732;2023-01-25T13:07:56;100726.38;;;4.83;71.29
5755;BME280;2902;42.130;24.732;2023-01-25T13:10:30;100736.41;;;4.89;70.22
5755;BME280;2902;42.130;24.732;2023-01-25T13:13:01;100731.34;;;4.97;69.95
5755;BME280;2902;42.130;24.732;2023-01-25T13:15:36;100732.94;;;5.09;69.93
5755;BME280;2902;42.130;24.732;2023-01-25T13:18:37;100734.09;;;5.26;69.66
5755;BME280;2902;42.130;24.732;2023-01-25T13:21:08;100726.88;;;5.18;69.18
5755;BME280;2902;42.130;24.732;2023-01-25T13:23:39;100729.31;;;5.10;69.65
5755;BME280;2902;42.130;24.732;2023-01-25T13:26:41;100723.19;;;5.00;70.58
5755;BME280;2902;42.130;24.732;2023-01-25T13:32:52;100718.56;;;4.93;70.11